Time;durP1;ratioP1;P1;durP2;ratioP2;P2;SDS_P1;SDS_P2;PMS_P1;PMS_P2;Temp;Humidity;BMP_temperature;BMP_pressure;BME280_temperature;BME280_humidity;BME280_pressure;Samples;Min_cycle;Max_cycle;Signal;HPM_P1;HPM_P2
2022/07/23 00:00:30;;;;;;;0.40;0.40;;;24.50;55.60;;;25.12;40.88;95075.25;5022109;28;20740;-77
2022/07/23 00:03:05;;;;;;;0.40;0.40;;;24.50;55.80;;;25.04;41.14;95074.75;5017003;28;20717;-76
2022/07/23 00:05:33;;;;;;;0.30;0.30;;;24.50;56.00;;;24.97;40.94;95081.53;5014166;28;20221;-77
2022/07/23 00:08:01;;;;;;;0.40;0.40;;;24.40;56.00;;;24.90;40.76;95073.78;4998100;28;20302;-77
2022/07/23 00:10:29;;;;;;;0.30;0.30;;;24.40;56.20;;;24.84;41.62;95069.53;5013422;28;20212;-78
2022/07/23 00:12:56;;;;;;;0.40;0.40;;;24.30;56.50;;;24.76;41.64;95068.25;5015136;28;20205;-77
2022/07/23 00:15:23;;;;;;;0.40;0.40;;;24.20;56.60;;;24.74;41.72;95071.22;4999104;28;20206;-77
2022/07/23 00:17:50;;;;;;;0.30;0.30;;;24.20;57.00;;;24.68;41.90;95077.69;4997647;28;20243;-78
2022/07/23 00:20:18;;;;;;;0.30;0.30;;;24.20;56.80;;;24.66;42.06;95076.34;4997395;28;20185;-76
2022/07/23 00:22:54;;;;;;;0.40;0.40;;;24.10;57.20;;;24.65;42.00;95083.56;5013080;28;20201;-77
2022/07/23 00:25:23;;;;;;;0.40;0.40;;;24.10;56.80;;;24.66;41.85;95089.75;5030047;28;20216;-77
2022/07/23 00:27:55;;;;;;;0.30;0.30;;;24.00;57.10;;;24.66;42.16;95092.44;5016496;28;20192;-77
2022/07/23 00:30:23;;;;;;;0.30;0.30;;;24.00;57.40;;;24.67;41.84;95089.50;5031046;28;20195;-76
2022/07/23 00:32:53;;;;;;;0.30;0.30;;;24.00;57.50;;;24.64;42.32;95081.19;4997902;28;20563;-77
2022/07/23 00:35:26;;;;;;;0.40;0.40;;;24.00;57.50;;;24.64;41.91;95084.66;5021666;28;20206;-77
2022/07/23 00:37:54;;;;;;;0.32;0.32;;;24.00;57.50;;;24.65;42.17;95083.56;5004016;28;20247;-77
2022/07/23 00:40:23;;;;;;;0.40;0.40;;;24.00;57.70;;;24.66;42.45;95074.47;5016775;28;20203;-77
2022/07/23 00:42:50;;;;;;;0.40;0.40;;;23.90;57.90;;;24.65;42.34;95072.84;5010340;28;20620;-78
2022/07/23 00:45:19;;;;;;;0.30;0.30;;;23.90;57.80;;;24.66;42.15;95061.06;4996797;28;20193;-76
2022/07/23 00:47:46;;;;;;;0.40;0.40;;;23.90;57.80;;;24.73;42.49;95076.84;5013337;28;20671;-77
2022/07/23 00:50:14;;;;;;;0.32;0.32;;;23.90;58.00;;;24.72;42.72;95070.69;5013537;28;20208;-77
2022/07/23 00:52:42;;;;;;;0.60;0.60;;;24.00;58.50;;;24.77;42.98;95081.38;5029001;28;20201;-78
2022/07/23 00:55:10;;;;;;;0.30;0.30;;;24.00;58.80;;;24.78;42.80;95068.78;5009654;28;20228;-77
2022/07/23 00:57:40;;;;;;;0.30;0.30;;;24.00;58.70;;;24.80;43.25;95065.81;5012092;28;20238;-77
2022/07/23 01:00:13;;;;;;;0.40;0.40;;;24.00;59.00;;;24.82;42.98;95060.97;4996968;28;20546;-77
2022/07/23 01:02:41;;;;;;;0.30;0.30;;;24.00;59.10;;;24.85;42.65;95063.91;4996670;28;20216;-77
2022/07/23 01:05:10;;;;;;;0.50;0.50;;;24.10;59.40;;;24.85;43.32;95066.59;5014247;28;20686;-78
2022/07/23 01:07:37;;;;;;;0.43;0.43;;;24.10;59.60;;;24.87;43.45;95067.09;5030884;28;20574;-77
2022/07/23 01:10:30;;;;;;;0.30;0.30;;;24.10;59.60;;;24.85;43.18;95061.22;5011699;28;20203;-77
2022/07/23 01:12:55;;;;;;;0.30;0.30;;;24.10;59.50;;;24.85;43.23;95068.47;5010359;28;20673;-78
2022/07/23 01:15:22;;;;;;;0.30;0.30;;;24.10;59.40;;;24.84;43.38;95059.63;5014097;28;20255;-78
2022/07/23 01:17:50;;;;;;;0.40;0.40;;;24.10;59.70;;;24.85;43.58;95060.41;5015959;28;20231;-77
2022/07/23 01:20:18;;;;;;;0.30;0.30;;;24.10;59.70;;;24.85;43.47;95063.09;5009530;28;20209;-77
2022/07/23 01:22:46;;;;;;;0.30;0.30;;;24.10;60.00;;;24.84;43.67;95059.63;5028407;28;20204;-77
2022/07/23 01:25:14;;;;;;;0.32;0.32;;;24.10;59.80;;;24.86;43.84;95056.66;4995948;28;20209;-77
2022/07/23 01:27:52;;;;;;;0.30;0.30;;;24.10;59.90;;;24.85;43.76;95050.50;5002122;28;20215;-77
2022/07/23 01:30:20;;;;;;;0.38;0.38;;;24.10;60.20;;;24.83;43.87;95041.91;5016240;28;20200;-77
2022/07/23 01:32:48;;;;;;;0.40;0.40;;;24.10;60.20;;;24.84;43.98;95042.72;5014679;28;20200;-77
2022/07/23 01:35:15;;;;;;;0.40;0.40;;;24.10;60.10;;;24.78;43.90;95036.59;5019310;28;20200;-77
2022/07/23 01:37:43;;;;;;;0.30;0.30;;;24.10;60.10;;;24.75;43.81;95031.78;5017915;28;20228;-78
2022/07/23 01:40:11;;;;;;;0.50;0.50;;;24.00;59.90;;;24.67;43.92;95017.09;5012012;28;20232;-78
2022/07/23 01:42:38;;;;;;;0.30;0.30;;;24.00;59.70;;;24.61;43.79;95008.22;5015060;28;20201;-77
2022/07/23 01:45:09;;;;;;;0.35;0.35;;;24.00;59.60;;;24.55;44.34;95003.19;5015912;28;20225;-77
2022/07/23 01:47:39;;;;;;;0.40;0.40;;;23.90;59.80;;;24.48;43.96;95010.75;5027449;28;20211;-77
2022/07/23 01:50:07;;;;;;;0.40;0.40;;;23.90;60.00;;;24.43;44.16;95001.63;5029046;28;20258;-77
2022/07/23 01:52:43;;;;;;;0.57;0.57;;;23.80;59.80;;;24.37;44.32;95001.97;5014677;28;20304;-77
2022/07/23 01:55:11;;;;;;;0.40;0.40;;;23.80;59.80;;;24.34;43.82;94994.47;5010445;28;20233;-77
2022/07/23 01:57:47;;;;;;;0.60;0.60;;;23.70;59.50;;;24.30;43.78;94991.53;5000477;28;20607;-77
2022/07/23 02:00:17;;;;;;;0.40;0.40;;;23.60;60.50;;;24.26;43.92;94987.81;5010702;28;20216;-77
2022/07/23 02:02:47;;;;;;;0.35;0.35;;;23.60;59.50;;;24.26;43.99;94983.25;5024338;28;20281;-77
2022/07/23 02:05:14;;;;;;;0.38;0.38;;;23.60;59.90;;;24.23;44.02;94981.13;5031792;28;20242;-77
2022/07/23 02:07:42;;;;;;;0.40;0.40;;;23.60;60.00;;;24.19;44.07;94980.06;5025918;28;20201;-78
2022/07/23 02:10:09;;;;;;;0.30;0.30;;;23.50;60.00;;;24.17;44.44;94973.38;5015334;28;20363;-77
2022/07/23 02:12:37;;;;;;;0.40;0.40;;;23.50;60.00;;;24.12;44.28;94966.16;5031049;28;20192;-77
2022/07/23 02:15:07;;;;;;;0.40;0.40;;;23.40;60.30;;;24.09;44.47;94959.47;5008999;28;20197;-77
2022/07/23 02:17:37;;;;;;;0.50;0.50;;;23.40;59.90;;;24.05;44.06;94955.75;5015205;28;20222;-77
2022/07/23 02:20:06;;;;;;;0.40;0.40;;;23.40;60.00;;;24.01;44.53;94951.22;5011722;28;20189;-77
2022/07/23 02:22:34;;;;;;;0.40;0.40;;;23.30;60.10;;;23.93;44.62;94948.03;5012133;28;20288;-78
2022/07/23 02:25:02;;;;;;;0.30;0.30;;;23.30;61.20;;;23.88;44.52;94949.94;5028313;28;20572;-77
2022/07/23 02:27:30;;;;;;;0.40;0.40;;;23.20;60.30;;;23.80;44.51;94949.44;4995696;28;20251;-77
2022/07/23 02:29:57;;;;;;;0.30;0.30;;;23.20;60.30;;;23.73;44.93;94942.75;4995216;28;20193;-78
2022/07/23 02:32:25;;;;;;;0.30;0.30;;;23.10;60.50;;;23.66;44.84;94932.34;5029705;28;20219;-78
2022/07/23 02:34:52;;;;;;;0.40;0.40;;;23.10;60.70;;;23.59;45.05;94934.50;5014324;28;20349;-77
2022/07/23 02:37:20;;;;;;;0.35;0.35;;;23.00;60.80;;;23.49;45.35;94917.41;4998753;28;20216;-77
2022/07/23 02:39:48;;;;;;;0.32;0.32;;;22.90;61.00;;;23.43;45.53;94915.03;5008727;28;20214;-77
2022/07/23 02:42:17;;;;;;;0.30;0.30;;;22.80;61.30;;;23.35;45.89;94908.34;4995322;28;20232;-77
2022/07/23 02:44:44;;;;;;;0.40;0.40;;;22.80;61.40;;;23.33;46.31;94911.31;5005889;28;20235;-77
2022/07/23 02:47:11;;;;;;;0.40;0.40;;;22.70;61.30;;;23.33;45.92;94908.63;5011468;28;20246;-76
2022/07/23 02:49:39;;;;;;;0.40;0.40;;;22.70;61.50;;;23.37;46.22;94913.44;5033822;28;20205;-75
2022/07/23 02:52:10;;;;;;;0.30;0.30;;;22.70;61.70;;;23.42;46.24;94929.47;5004740;28;20229;-77
2022/07/23 02:54:38;;;;;;;0.30;0.30;;;22.70;61.70;;;23.48;46.29;94945.25;5020058;28;20556;-77
2022/07/23 02:57:05;;;;;;;0.30;0.30;;;22.70;61.90;;;23.62;46.23;94950.00;5006165;28;20209;-77
2022/07/23 02:59:32;;;;;;;0.30;0.30;;;22.80;62.10;;;23.69;46.43;94947.84;5010358;28;20320;-77
2022/07/23 03:02:00;;;;;;;0.40;0.40;;;22.90;62.20;;;23.79;46.06;94944.31;5010712;28;20240;-77
2022/07/23 03:04:29;;;;;;;0.40;0.40;;;23.00;62.10;;;23.83;46.66;94948.06;5008448;28;20193;-77
2022/07/23 03:06:56;;;;;;;0.30;0.30;;;23.10;62.20;;;23.89;46.41;94940.81;5013928;28;20580;-76
2022/07/23 03:09:25;;;;;;;0.40;0.40;;;23.10;62.10;;;23.91;46.43;94933.28;4996316;28;20194;-77
2022/07/23 03:11:52;;;;;;;0.40;0.40;;;23.20;62.10;;;23.90;46.17;94937.88;5013232;28;20256;-77
2022/07/23 03:14:20;;;;;;;0.30;0.30;;;23.20;63.00;;;23.93;46.33;94944.56;4997078;28;20208;-77
2022/07/23 03:16:49;;;;;;;0.50;0.50;;;23.20;62.10;;;23.90;46.46;94948.59;5039871;28;20298;-78
2022/07/23 03:19:16;;;;;;;0.30;0.30;;;23.20;62.10;;;23.90;46.34;94948.59;5016846;28;20223;-78
2022/07/23 03:21:44;;;;;;;0.30;0.30;;;23.30;62.30;;;23.90;46.63;94953.94;5048536;28;20842;-76
2022/07/23 03:24:12;;;;;;;0.50;0.50;;;23.20;62.20;;;23.92;46.65;94964.38;5015142;28;20257;-77
2022/07/23 03:26:39;;;;;;;0.40;0.40;;;23.30;62.10;;;23.88;46.57;94958.75;5012931;28;20256;-77
2022/07/23 03:29:07;;;;;;;0.32;0.32;;;23.30;62.10;;;23.98;46.44;94974.81;4996060;28;20200;-78
2022/07/23 03:31:35;;;;;;;0.30;0.30;;;23.30;61.80;;;24.04;46.68;94972.91;5023518;28;20301;-77
2022/07/23 03:34:02;;;;;;;0.40;0.40;;;23.30;62.40;;;24.07;46.50;94972.38;5013963;28;20208;-77
2022/07/23 03:36:30;;;;;;;0.57;0.57;;;23.30;62.30;;;24.07;46.57;94974.22;5015185;28;20233;-77
2022/07/23 03:38:57;;;;;;;0.35;0.35;;;23.40;62.20;;;24.11;46.45;94975.31;5012808;28;20220;-78
2022/07/23 03:41:27;;;;;;;0.30;0.30;;;23.40;62.00;;;24.14;46.39;94969.38;5005097;28;20227;-78
2022/07/23 03:43:57;;;;;;;0.50;0.50;;;23.40;61.80;;;24.20;46.29;94973.63;5010650;28;20204;-78
2022/07/23 03:46:27;;;;;;;0.30;0.30;;;23.50;62.00;;;24.24;46.35;94974.69;5010412;28;20208;-78
2022/07/23 03:48:55;;;;;;;0.30;0.30;;;23.50;62.10;;;24.35;46.51;94988.03;5014688;28;20200;-77
2022/07/23 03:51:25;;;;;;;0.40;0.40;;;23.60;62.00;;;24.38;46.16;94998.22;5025301;28;20216;-77
2022/07/23 03:53:54;;;;;;;0.40;0.40;;;23.60;62.00;;;24.43;46.23;95022.28;5007554;28;20200;-78
2022/07/23 03:56:22;;;;;;;0.40;0.40;;;23.70;62.20;;;24.50;46.86;95038.06;5025005;28;20256;-79
2022/07/23 03:58:49;;;;;;;0.30;0.30;;;23.70;62.60;;;24.51;46.97;95039.66;4997826;28;20218;-79
2022/07/23 04:01:17;;;;;;;0.40;0.40;;;23.70;62.60;;;24.50;47.02;95024.66;5025292;28;20223;-78
2022/07/23 04:03:46;;;;;;;0.30;0.30;;;23.80;62.80;;;24.51;47.49;95020.91;5008083;28;20205;-77
2022/07/23 04:06:13;;;;;;;0.40;0.40;;;23.80;63.00;;;24.59;47.99;95014.97;5013708;28;20302;-77
2022/07/23 04:08:42;;;;;;;0.20;0.20;;;23.90;63.50;;;24.64;47.73;95006.88;5003702;28;20233;-77
2022/07/23 04:11:09;;;;;;;0.45;0.45;;;23.90;63.50;;;24.63;47.59;94986.50;5020857;28;20294;-77
2022/07/23 04:13:36;;;;;;;0.50;0.50;;;24.00;63.50;;;24.66;47.67;94985.97;4985499;28;20300;-77
2022/07/23 04:16:05;;;;;;;0.30;0.30;;;24.00;63.30;;;24.73;47.60;94986.47;5000995;28;20209;-78
2022/07/23 04:18:32;;;;;;;0.40;0.40;;;24.10;63.30;;;24.79;47.62;94987.22;5010438;28;20270;-78
2022/07/23 04:21:06;;;;;;;0.40;0.40;;;24.10;63.30;;;24.77;47.21;94992.84;4986909;28;20220;-77
2022/07/23 04:23:35;;;;;;;0.30;0.30;;;24.10;63.00;;;24.81;47.44;94995.78;5013045;28;20204;-78
2022/07/23 04:26:02;;;;;;;0.30;0.30;;;24.10;63.20;;;24.80;47.70;94985.34;4997936;28;20707;-77
2022/07/23 04:28:31;;;;;;;0.20;0.20;;;24.20;63.40;;;24.77;48.02;94987.50;5012712;28;20211;-78
2022/07/23 04:31:01;;;;;;;0.50;0.50;;;24.20;63.50;;;24.74;48.14;94984.56;5001709;28;20227;-78
2022/07/23 04:33:29;;;;;;;0.60;0.60;;;24.20;63.60;;;24.74;48.56;94987.25;5008918;28;20296;-78
2022/07/23 04:35:58;;;;;;;0.40;0.40;;;24.10;63.80;;;24.74;48.46;94979.22;4998442;28;20223;-78
2022/07/23 04:38:25;;;;;;;0.35;0.35;;;24.20;64.10;;;24.78;48.20;94977.59;4997082;28;20224;-78
2022/07/23 04:40:58;;;;;;;0.40;0.40;;;24.20;64.00;;;24.81;48.59;94971.63;5006927;28;20232;-78
2022/07/23 04:43:25;;;;;;;0.40;0.40;;;24.20;64.20;;;24.90;48.22;94961.91;5022791;28;20657;-79
2022/07/23 04:45:53;;;;;;;0.40;0.40;;;24.20;64.00;;;24.99;48.08;94967.47;4990440;28;20207;-78
2022/07/23 04:48:23;;;;;;;0.40;0.40;;;24.30;64.00;;;25.06;48.37;94976.00;5016214;28;20208;-78
2022/07/23 04:50:58;;;;;;;0.50;0.50;;;24.40;64.40;;;25.10;48.61;94974.34;5012546;28;20217;-78
2022/07/23 04:53:29;;;;;;;0.30;0.30;;;24.50;64.40;;;25.18;48.61;94977.50;5009450;28;20228;-78
2022/07/23 04:56:00;;;;;;;0.50;0.50;;;24.50;64.50;;;25.25;48.63;94983.34;5021357;28;20560;-78
2022/07/23 04:58:29;;;;;;;0.30;0.30;;;24.60;64.30;;;25.31;48.81;94992.94;4998685;28;20222;-78
2022/07/23 05:00:58;;;;;;;0.35;0.35;;;24.60;64.50;;;25.37;49.52;94999.88;5016278;28;20263;-78
2022/07/23 05:03:26;;;;;;;0.30;0.30;;;24.70;65.50;;;25.42;49.73;95009.78;4980163;28;20239;-78
2022/07/23 05:05:54;;;;;;;0.35;0.35;;;24.80;65.50;;;25.53;50.36;95010.47;5017067;28;20222;-78
2022/07/23 05:08:21;;;;;;;0.40;0.40;;;24.80;65.80;;;25.62;50.19;94997.22;5005122;28;20255;-79
2022/07/23 05:10:54;;;;;;;0.35;0.35;;;24.90;65.70;;;25.71;49.67;95004.38;5012586;28;20217;-78
2022/07/23 05:13:21;;;;;;;0.43;0.43;;;25.00;65.50;;;25.81;49.43;95011.50;5015161;28;20648;-79
2022/07/23 05:15:53;;;;;;;0.30;0.30;;;25.10;65.30;;;25.89;49.40;95004.72;5009105;28;20228;-78
2022/07/23 05:18:21;;;;;;;0.40;0.40;;;25.10;65.10;;;26.01;49.87;95017.72;5010410;28;20213;-80
2022/07/23 05:20:48;;;;;;;0.40;0.40;;;25.30;65.40;;;26.09;49.38;95024.41;5000717;28;20711;-79
2022/07/23 05:23:19;;;;;;;0.38;0.38;;;25.40;65.20;;;26.18;49.10;95017.28;5014869;28;20194;-78
2022/07/23 05:25:47;;;;;;;0.30;0.30;;;25.40;65.10;;;26.26;49.29;95015.88;5013028;28;20257;-77
2022/07/23 05:28:16;;;;;;;0.30;0.30;;;25.60;64.90;;;26.39;48.83;95022.41;5012720;28;20222;-76
2022/07/23 05:30:49;;;;;;;0.30;0.30;;;25.60;64.80;;;26.44;48.81;95020.44;5012468;28;20264;-76
2022/07/23 05:33:20;;;;;;;0.30;0.30;;;25.70;64.60;;;26.61;48.27;95029.88;5020224;28;20209;-76
2022/07/23 05:35:49;;;;;;;0.30;0.30;;;25.90;64.30;;;26.67;48.43;95015.28;5019476;28;20766;-77
2022/07/23 05:38:26;;;;;;;0.35;0.35;;;26.00;64.20;;;26.80;48.33;95008.41;5036190;28;20225;-77
2022/07/23 05:40:56;;;;;;;0.30;0.30;;;26.10;64.00;;;26.94;48.45;95009.25;4996372;28;20760;-76
2022/07/23 05:43:24;;;;;;;0.40;0.40;;;26.30;63.90;;;27.08;48.28;95019.28;5002878;28;20208;-76
2022/07/23 05:45:53;;;;;;;0.20;0.20;;;26.40;63.70;;;27.15;48.08;95015.09;5002839;28;20223;-77
2022/07/23 05:48:22;;;;;;;0.30;0.30;;;26.50;63.70;;;27.23;47.69;95012.81;5001573;28;20253;-77
2022/07/23 05:51:06;;;;;;;0.30;0.30;;;26.60;63.50;;;27.35;47.61;95015.84;5005392;28;20231;-77
2022/07/23 05:53:35;;;;;;;0.20;0.20;;;26.70;63.20;;;27.44;47.57;95013.28;5009915;28;20218;-76
2022/07/23 05:56:33;;;;;;;0.35;0.35;;;26.80;63.20;;;27.53;47.13;95005.34;5018634;28;20218;-77
2022/07/23 05:59:00;;;;;;;0.30;0.30;;;26.90;62.80;;;27.58;47.00;95005.25;4987581;28;20219;-77
2022/07/23 06:01:30;;;;;;;0.40;0.40;;;27.00;62.70;;;27.68;46.91;95015.03;5001878;28;20754;-76
2022/07/23 06:04:06;;;;;;;0.20;0.20;;;27.10;62.60;;;27.71;46.98;95015.22;5015350;28;20215;-76
2022/07/23 06:06:36;;;;;;;0.30;0.30;;;27.20;62.40;;;27.80;46.39;95018.03;5007663;28;20264;-78
2022/07/23 06:09:06;;;;;;;0.30;0.30;;;27.30;62.20;;;27.86;46.19;95013.34;4994579;28;20208;-79
2022/07/23 06:11:34;;;;;;;0.20;0.20;;;27.30;61.80;;;27.88;46.41;95019.22;5002829;28;20223;-78
2022/07/23 06:14:02;;;;;;;0.30;0.30;;;27.40;61.90;;;27.91;46.15;95024.03;5009684;28;20262;-79
2022/07/23 06:16:43;;;;;;;0.30;0.30;;;27.40;61.80;;;27.92;46.17;95014.84;5017792;28;20228;-79
2022/07/23 06:19:11;;;;;;;0.30;0.30;;;27.40;61.70;;;27.89;45.48;95010.03;5018664;28;20215;-78
2022/07/23 06:21:38;;;;;;;0.30;0.30;;;27.40;61.30;;;27.94;45.77;95018.81;4995781;28;20227;-78
2022/07/23 06:24:15;;;;;;;0.30;0.30;;;27.40;61.20;;;27.92;45.56;95012.94;5011673;28;20205;-79
2022/07/23 06:26:43;;;;;;;0.20;0.20;;;27.40;60.90;;;27.89;45.13;95004.63;5017259;28;20304;-79
2022/07/23 06:29:10;;;;;;;0.20;0.20;;;27.40;60.60;;;27.83;44.99;95011.22;5022019;28;20200;-79
2022/07/23 06:31:37;;;;;;;0.28;0.28;;;27.40;60.60;;;27.80;44.63;95010.72;4989114;28;20219;-78
2022/07/23 06:34:04;;;;;;;0.30;0.30;;;27.30;60.30;;;27.74;45.11;95014.63;5005219;28;20546;-79
2022/07/23 06:36:31;;;;;;;0.20;0.20;;;27.30;60.50;;;27.71;44.93;95011.72;5020003;28;20314;-79
2022/07/23 06:38:58;;;;;;;0.20;0.20;;;27.20;60.50;;;27.69;44.67;95008.53;5010876;28;20224;-79
2022/07/23 06:41:26;;;;;;;0.30;0.30;;;27.20;60.70;;;27.65;45.30;95011.03;4993891;28;20991;-79
2022/07/23 06:43:55;;;;;;;0.30;0.30;;;27.20;60.70;;;27.67;45.35;95008.03;5019966;28;20193;-78
2022/07/23 06:46:22;;;;;;;0.30;0.30;;;27.20;60.70;;;27.72;45.05;95011.44;5003506;28;20649;-79
2022/07/23 06:48:50;;;;;;;0.30;0.30;;;27.20;60.90;;;27.84;45.29;95005.53;5018186;28;20574;-79
2022/07/23 06:51:18;;;;;;;0.30;0.30;;;27.30;61.00;;;28.01;45.39;95006.84;4994628;28;20275;-79
2022/07/23 06:53:45;;;;;;;0.30;0.30;;;27.40;61.00;;;28.16;45.30;95000.34;5020374;28;20234;-79
2022/07/23 06:56:12;;;;;;;0.30;0.30;;;27.50;60.60;;;28.30;44.28;94998.44;4996618;28;20218;-79
2022/07/23 06:58:39;;;;;;;0.30;0.30;;;27.70;60.50;;;28.44;44.39;94995.69;5011790;28;20207;-78
2022/07/23 07:01:07;;;;;;;0.20;0.20;;;27.70;60.10;;;28.52;44.05;94991.50;5028485;28;20703;-79
2022/07/23 07:03:34;;;;;;;0.30;0.30;;;27.90;60.00;;;28.57;43.93;94986.75;5012484;28;20278;-79
2022/07/23 07:06:02;;;;;;;0.32;0.32;;;27.90;59.80;;;28.64;44.08;94993.63;5029925;28;20220;-78
2022/07/23 07:08:29;;;;;;;0.30;0.30;;;28.00;60.00;;;28.71;43.85;94992.16;5013854;28;20606;-79
2022/07/23 07:10:56;;;;;;;0.30;0.30;;;28.10;59.70;;;28.73;44.01;94992.66;5013828;28;20223;-79
2022/07/23 07:13:23;;;;;;;0.30;0.30;;;28.10;59.40;;;28.78;43.60;94993.63;5029916;28;20216;-79
2022/07/23 07:15:50;;;;;;;0.30;0.30;;;28.10;59.10;;;28.72;43.68;94996.47;5013627;28;20225;-79
2022/07/23 07:18:18;;;;;;;0.30;0.30;;;28.20;59.40;;;28.77;43.69;94998.22;4997865;28;20205;-78
2022/07/23 07:20:45;;;;;;;0.30;0.30;;;28.20;59.20;;;28.79;43.88;94997.94;5013601;28;20234;-79
2022/07/23 07:23:13;;;;;;;0.30;0.30;;;28.20;59.40;;;28.85;43.69;95008.28;5013810;28;20202;-78
2022/07/23 07:25:42;;;;;;;0.30;0.30;;;28.30;59.40;;;28.91;43.82;95004.38;5045707;28;20710;-78
2022/07/23 07:28:09;;;;;;;0.30;0.30;;;28.40;59.40;;;28.98;43.57;95003.94;5025640;28;20189;-77
2022/07/23 07:30:36;;;;;;;0.30;0.30;;;28.40;58.90;;;29.03;43.60;95008.44;5020536;28;20590;-76
2022/07/23 07:33:04;;;;;;;0.30;0.30;;;28.50;59.10;;;29.06;43.00;95018.59;5019873;28;20200;-76
2022/07/23 07:35:34;;;;;;;0.30;0.30;;;28.50;58.60;;;29.05;43.46;95009.72;5011922;28;20732;-78
2022/07/23 07:38:01;;;;;;;0.30;0.30;;;28.50;58.60;;;29.05;43.01;95014.31;5006317;28;20203;-79
2022/07/23 07:40:28;;;;;;;0.30;0.30;;;28.50;58.70;;;29.01;43.13;95016.81;5018481;28;20230;-77
2022/07/23 07:43:01;;;;;;;0.30;0.30;;;28.50;58.40;;;28.95;42.69;95011.88;5004753;28;20237;-78
2022/07/23 07:45:29;;;;;;;0.30;0.30;;;28.40;58.40;;;28.88;42.76;95012.28;5010602;28;20238;-76
2022/07/23 07:47:57;;;;;;;0.30;0.30;;;28.40;58.60;;;28.86;42.75;95018.00;5009261;28;20283;-76
2022/07/23 07:50:24;;;;;;;0.20;0.20;;;28.40;58.50;;;28.83;43.25;95017.81;5016659;28;20227;-79
2022/07/23 07:52:52;;;;;;;0.20;0.20;;;28.30;58.60;;;28.80;43.39;95011.13;5005458;28;20597;-77
2022/07/23 07:55:19;;;;;;;0.20;0.20;;;28.30;58.70;;;28.79;43.42;95020.31;5023543;28;20196;-77
2022/07/23 07:57:47;;;;;;;0.25;0.25;;;28.30;58.80;;;28.80;43.53;95024.63;5023137;28;20217;-76
2022/07/23 08:00:17;;;;;;;0.20;0.20;;;28.30;59.00;;;28.81;43.30;95033.50;5007493;28;20216;-77
2022/07/23 08:02:46;;;;;;;0.20;0.20;;;28.30;58.90;;;28.81;43.46;95045.13;5023948;28;20211;-78
2022/07/23 08:05:14;;;;;;;0.30;0.30;;;28.30;59.00;;;28.82;43.65;95048.59;5020705;28;20240;-77
2022/07/23 08:07:42;;;;;;;0.30;0.30;;;28.30;59.20;;;28.80;44.00;95045.44;5020741;28;20207;-77
2022/07/23 08:10:09;;;;;;;0.30;0.30;;;28.30;59.40;;;28.82;44.10;95041.31;5022023;28;20194;-78
2022/07/23 08:12:48;;;;;;;0.28;0.28;;;28.30;59.60;;;28.85;44.25;95043.38;5006063;28;20217;-78
2022/07/23 08:15:19;;;;;;;0.40;0.40;;;28.40;60.00;;;28.87;44.17;95049.28;5004261;28;20207;-77
2022/07/23 08:17:47;;;;;;;0.30;0.30;;;28.40;60.10;;;28.87;44.13;95049.28;5019914;28;20203;-78
2022/07/23 08:20:19;;;;;;;0.20;0.20;;;28.40;60.00;;;28.91;44.52;95050.25;5020537;28;20238;-77
2022/07/23 08:22:51;;;;;;;0.30;0.30;;;28.40;60.10;;;28.99;44.67;95056.03;5003551;28;20212;-76
2022/07/23 08:25:25;;;;;;;0.30;0.30;;;28.50;60.10;;;29.02;44.19;95045.44;5020488;28;20186;-77
2022/07/23 08:27:53;;;;;;;0.20;0.20;;;28.50;59.90;;;29.07;43.75;95058.81;5020730;28;20206;-77
2022/07/23 08:30:21;;;;;;;0.30;0.30;;;28.50;60.90;;;29.10;44.08;95089.00;5021106;28;20665;-78
2022/07/23 08:33:00;;;;;;;0.20;0.20;;;28.50;60.10;;;29.05;44.62;95079.94;5023262;28;20290;-77
2022/07/23 08:35:39;;;;;;;0.30;0.30;;;28.50;60.10;;;28.95;44.68;95088.25;5006040;28;20316;-80
2022/07/23 08:38:10;;;;;;;0.30;0.30;;;28.50;60.10;;;28.82;44.21;95095.31;5013555;28;20249;-79
2022/07/23 08:40:40;;;;;;;0.35;0.35;;;28.40;60.00;;;28.70;44.79;95085.03;5019200;28;20236;-79
2022/07/23 08:43:14;;;;;;;0.30;0.30;;;28.30;60.10;;;28.60;44.45;95096.03;5014770;28;20203;-79
2022/07/23 08:45:45;;;;;;;0.30;0.30;;;28.20;60.20;;;28.56;45.31;95095.00;5005738;28;20323;-79
2022/07/23 08:48:18;;;;;;;0.30;0.30;;;28.10;60.70;;;28.55;45.68;95105.03;4989633;28;20198;-79
2022/07/23 08:50:49;;;;;;;0.25;0.25;;;28.10;61.40;;;28.54;45.59;95100.72;4997376;28;20232;-79
2022/07/23 08:53:18;;;;;;;0.30;0.30;;;28.10;60.90;;;28.54;45.52;95108.81;4988359;28;20263;-79
2022/07/23 08:55:49;;;;;;;0.20;0.20;;;28.10;60.70;;;28.55;45.16;95106.91;5006830;28;20248;-79
2022/07/23 08:58:17;;;;;;;0.30;0.30;;;28.10;60.80;;;28.60;45.19;95099.50;5004410;28;20215;-79
2022/07/23 09:00:46;;;;;;;0.30;0.30;;;28.10;61.00;;;28.67;45.52;95088.28;5003967;28;20254;-79
2022/07/23 09:03:22;;;;;;;0.32;0.32;;;28.20;61.00;;;28.77;45.42;95090.00;5017377;28;20191;-79
2022/07/23 09:05:51;;;;;;;0.40;0.40;;;28.20;61.10;;;28.85;45.67;95081.19;5020736;28;20605;-79
2022/07/23 09:08:24;;;;;;;0.20;0.20;;;28.30;60.80;;;28.96;44.95;95087.16;5022197;28;20209;-78
2022/07/23 09:11:01;;;;;;;0.30;0.30;;;28.40;61.00;;;28.98;44.39;95084.97;5014535;28;20991;-79
2022/07/23 09:13:48;;;;;;;0.30;0.30;;;28.40;59.50;;;28.95;44.28;95072.06;5014396;28;20209;-79
2022/07/23 09:16:35;;;;;;;0.30;0.30;;;28.40;59.90;;;28.87;44.96;95054.69;5012272;28;20216;-79
2022/07/23 09:19:07;;;;;;;0.20;0.20;;;28.40;60.20;;;28.87;44.64;95059.31;5013254;28;20211;-78
2022/07/23 09:21:38;;;;;;;0.30;0.30;;;28.40;60.10;;;28.86;44.42;95047.69;5007358;28;20222;-78
2022/07/23 09:24:11;;;;;;;0.28;0.28;;;28.40;60.20;;;28.85;44.17;95029.88;5000673;28;20209;-78
2022/07/23 09:26:44;;;;;;;0.25;0.25;;;28.30;60.20;;;28.85;44.41;95027.19;5002934;28;20320;-78
2022/07/23 09:29:33;;;;;;;0.30;0.30;;;28.30;60.10;;;28.86;44.95;95030.72;5021938;28;20195;-78
2022/07/23 09:32:05;;;;;;;0.30;0.30;;;28.40;60.20;;;28.91;44.21;95038.69;5035353;28;20221;-77
2022/07/23 09:34:39;;;;;;;0.20;0.20;;;28.40;60.10;;;28.97;44.63;95050.94;5005406;28;20213;-78
2022/07/23 09:37:18;;;;;;;0.30;0.30;;;28.50;60.00;;;29.02;44.23;95050.81;5013354;28;20312;-78
2022/07/23 09:39:48;;;;;;;0.35;0.35;;;28.50;60.00;;;29.09;44.44;95072.03;5003800;28;20214;-78
2022/07/23 09:42:22;;;;;;;0.30;0.30;;;28.50;60.00;;;29.16;44.86;95085.91;5023867;28;20208;-77
2022/07/23 09:44:55;;;;;;;0.30;0.30;;;28.60;60.30;;;29.17;44.41;95073.19;5012882;28;20222;-79
2022/07/23 09:47:26;;;;;;;0.20;0.20;;;28.60;59.90;;;29.16;44.22;95066.19;4991804;28;20220;-78
2022/07/23 09:50:11;;;;;;;0.30;0.30;;;28.60;59.90;;;29.17;44.19;95065.06;5018910;28;20671;-79
2022/07/23 09:52:48;;;;;;;0.20;0.20;;;28.60;59.80;;;29.21;44.32;95061.47;5010965;28;20214;-78
2022/07/23 09:55:18;;;;;;;0.22;0.22;;;28.60;60.00;;;29.27;44.21;95069.44;5020631;28;20199;-77
2022/07/23 09:57:50;;;;;;;0.30;0.30;;;28.70;60.30;;;29.34;44.87;95070.63;5017848;28;20205;-78
2022/07/23 10:00:19;;;;;;;0.25;0.25;;;28.70;60.40;;;29.39;44.18;95058.88;5008294;28;20239;-77
2022/07/23 10:02:47;;;;;;;0.30;0.30;;;28.80;60.20;;;29.43;44.41;95050.97;5009306;28;20199;-77
2022/07/23 10:05:30;;;;;;;0.20;0.20;;;28.80;60.10;;;29.45;44.72;95027.13;5008270;28;20298;-78
2022/07/23 10:08:19;;;;;;;0.25;0.25;;;28.90;60.40;;;29.49;44.94;95028.91;5021036;28;20226;-77
2022/07/23 10:11:05;;;;;;;0.30;0.30;;;28.90;60.10;;;29.53;44.49;95048.03;5003448;28;20248;-78
2022/07/23 10:13:58;;;;;;;0.30;0.30;;;29.00;60.00;;;29.61;44.08;95071.56;5031105;28;20205;-78
2022/07/23 10:16:44;;;;;;;0.20;0.20;;;29.10;60.10;;;29.63;44.27;95077.47;5017091;28;20775;-77
2022/07/23 10:19:11;;;;;;;0.30;0.30;;;29.10;60.00;;;29.71;43.97;95087.53;5013054;28;20514;-78
2022/07/23 10:21:48;;;;;;;0.30;0.30;;;29.20;60.00;;;29.81;44.67;95091.06;5030786;28;20229;-77
2022/07/23 10:24:15;;;;;;;0.30;0.30;;;29.30;59.90;;;29.85;43.39;95084.72;5031760;28;20241;-77
2022/07/23 10:27:09;;;;;;;0.30;0.30;;;29.30;58.90;;;29.84;43.08;95087.75;5031423;28;20219;-78
2022/07/23 10:29:50;;;;;;;0.30;0.30;;;29.30;58.30;;;29.87;42.64;95090.63;5032643;28;20200;-78
2022/07/23 10:32:47;;;;;;;0.28;0.28;;;29.40;57.90;;;29.89;42.24;95076.00;5027320;28;20240;-77